sensor_id;sensor_type;location;lat;lon;timestamp;pressure;altitude;pressure_sealevel;temperature;humidity
41624;BME280;27319;50.306;18.926;2022-11-20T00:02:09;97961.16;;;-5.25;90.48
41624;BME280;27319;50.306;18.926;2022-11-20T00:05:49;97961.69;;;-5.19;92.38
41624;BME280;27319;50.306;18.926;2022-11-20T00:08:54;97953.28;;;-5.08;93.43
41624;BME280;27319;50.306;18.926;2022-11-20T00:11:55;97947.22;;;-5.26;92.71
41624;BME280;27319;50.306;18.926;2022-11-20T00:14:56;97950.41;;;-5.36;92.12
41624;BME280;27319;50.306;18.926;2022-11-20T00:17:57;97951.78;;;-5.46;89.00
41624;BME280;27319;50.306;18.926;2022-11-20T00:21:06;97952.84;;;-5.33;89.40
41624;BME280;27319;50.306;18.926;2022-11-20T00:24:27;97951.47;;;-5.23;91.04
41624;BME280;27319;50.306;18.926;2022-11-20T00:28:28;97953.16;;;-5.22;91.89
41624;BME280;27319;50.306;18.926;2022-11-20T00:32:29;97958.72;;;-5.45;91.32
41624;BME280;27319;50.306;18.926;2022-11-20T00:36:17;97953.97;;;-5.54;90.57
41624;BME280;27319;50.306;18.926;2022-11-20T00:39:18;97950.47;;;-5.38;91.20
41624;BME280;27319;50.306;18.926;2022-11-20T00:42:19;97947.41;;;-5.29;92.15
41624;BME280;27319;50.306;18.926;2022-11-20T00:45:20;97954.47;;;-5.31;92.40
41624;BME280;27319;50.306;18.926;2022-11-20T00:48:21;97951.25;;;-5.36;92.39
41624;BME280;27319;50.306;18.926;2022-11-20T00:51:42;97947.44;;;-5.46;91.69
41624;BME280;27319;50.306;18.926;2022-11-20T00:55:43;97938.41;;;-5.40;92.49
41624;BME280;27319;50.306;18.926;2022-11-20T00:59:43;97943.81;;;-5.43;92.65
41624;BME280;27319;50.306;18.926;2022-11-20T01:03:45;97938.97;;;-5.51;92.12
41624;BME280;27319;50.306;18.926;2022-11-20T01:07:45;97937.72;;;-5.44;92.51
41624;BME280;27319;50.306;18.926;2022-11-20T01:11:45;97932.25;;;-5.39;93.23
41624;BME280;27319;50.306;18.926;2022-11-20T01:15:46;97918.25;;;-5.55;92.21
41624;BME280;27319;50.306;18.926;2022-11-20T01:19:50;97934.81;;;-5.55;92.32
41624;BME280;27319;50.306;18.926;2022-11-20T01:23:50;97939.34;;;-5.75;91.60
41624;BME280;27319;50.306;18.926;2022-11-20T01:27:51;97925.28;;;-5.56;92.26
41624;BME280;27319;50.306;18.926;2022-11-20T01:31:51;97913.59;;;-5.49;92.79
41624;BME280;27319;50.306;18.926;2022-11-20T01:35:32;97909.06;;;-5.62;91.52
41624;BME280;27319;50.306;18.926;2022-11-20T01:38:57;97909.84;;;-5.60;91.82
41624;BME280;27319;50.306;18.926;2022-11-20T01:43:06;97905.13;;;-5.71;90.32
41624;BME280;27319;50.306;18.926;2022-11-20T01:46:56;97900.16;;;-5.75;91.27
41624;BME280;27319;50.306;18.926;2022-11-20T01:50:56;97896.91;;;-5.63;91.98
41624;BME280;27319;50.306;18.926;2022-11-20T01:58:54;97891.72;;;-5.80;90.08
41624;BME280;27319;50.306;18.926;2022-11-20T02:03:00;97899.56;;;-5.80;90.92
41624;BME280;27319;50.306;18.926;2022-11-20T02:06:52;97898.53;;;-5.78;91.98
41624;BME280;27319;50.306;18.926;2022-11-20T02:10:51;97893.09;;;-5.90;92.02
41624;BME280;27319;50.306;18.926;2022-11-20T02:14:52;97892.66;;;-5.81;93.35
41624;BME280;27319;50.306;18.926;2022-11-20T02:18:54;97905.41;;;-5.92;92.13
41624;BME280;27319;50.306;18.926;2022-11-20T02:23:05;97918.28;;;-5.72;93.24
41624;BME280;27319;50.306;18.926;2022-11-20T02:27:04;97916.28;;;-5.67;93.39
41624;BME280;27319;50.306;18.926;2022-11-20T02:31:04;97928.91;;;-5.92;91.97
41624;BME280;27319;50.306;18.926;2022-11-20T02:34:44;97922.78;;;-5.91;90.34
41624;BME280;27319;50.306;18.926;2022-11-20T02:38:05;97924.31;;;-5.87;91.55
41624;BME280;27319;50.306;18.926;2022-11-20T02:42:06;97915.06;;;-5.77;92.77
41624;BME280;27319;50.306;18.926;2022-11-20T02:46:07;97923.34;;;-5.69;93.72
41624;BME280;27319;50.306;18.926;2022-11-20T02:50:07;97921.94;;;-5.92;91.92
41624;BME280;27319;50.306;18.926;2022-11-20T02:54:09;97935.06;;;-5.93;92.46
41624;BME280;27319;50.306;18.926;2022-11-20T02:58:09;97928.13;;;-5.77;93.76
41624;BME280;27319;50.306;18.926;2022-11-20T03:02:10;97928.47;;;-5.83;93.65
41624;BME280;27319;50.306;18.926;2022-11-20T03:06:10;97932.44;;;-5.76;93.31
41624;BME280;27319;50.306;18.926;2022-11-20T03:10:11;97931.41;;;-5.89;92.23
41624;BME280;27319;50.306;18.926;2022-11-20T03:14:12;97924.63;;;-5.93;92.91
41624;BME280;27319;50.306;18.926;2022-11-20T03:18:13;97918.09;;;-6.02;92.10
41624;BME280;27319;50.306;18.926;2022-11-20T03:22:13;97917.91;;;-6.16;90.44
41624;BME280;27319;50.306;18.926;2022-11-20T03:26:16;97921.44;;;-6.17;90.05
41624;BME280;27319;50.306;18.926;2022-11-20T03:30:14;97921.22;;;-5.95;91.96
41624;BME280;27319;50.306;18.926;2022-11-20T03:34:15;97930.47;;;-6.05;90.80
41624;BME280;27319;50.306;18.926;2022-11-20T03:37:37;97936.03;;;-6.13;90.46
41624;BME280;27319;50.306;18.926;2022-11-20T03:41:04;97924.13;;;-6.18;90.62
41624;BME280;27319;50.306;18.926;2022-11-20T03:44:25;97921.22;;;-5.95;92.17
41624;BME280;27319;50.306;18.926;2022-11-20T03:47:53;97912.31;;;-6.08;91.03
41624;BME280;27319;50.306;18.926;2022-11-20T03:51:35;97919.63;;;-6.15;90.96
41624;BME280;27319;50.306;18.926;2022-11-20T03:54:37;97913.06;;;-6.23;90.54
41624;BME280;27319;50.306;18.926;2022-11-20T03:57:37;97909.91;;;-6.30;89.57
41624;BME280;27319;50.306;18.926;2022-11-20T04:00:39;97917.41;;;-6.05;91.49
41624;BME280;27319;50.306;18.926;2022-11-20T04:03:59;97924.63;;;-5.93;91.65
41624;BME280;27319;50.306;18.926;2022-11-20T04:08:00;97924.66;;;-6.12;91.03
41624;BME280;27319;50.306;18.926;2022-11-20T04:12:00;97924.75;;;-6.13;91.14
41624;BME280;27319;50.306;18.926;2022-11-20T04:16:01;97923.84;;;-5.95;93.07
41624;BME280;27319;50.306;18.926;2022-11-20T04:20:02;97924.84;;;-6.15;91.90
41624;BME280;27319;50.306;18.926;2022-11-20T04:24:03;97917.38;;;-6.22;91.62
41624;BME280;27319;50.306;18.926;2022-11-20T04:28:03;97905.63;;;-6.14;92.26
41624;BME280;27319;50.306;18.926;2022-11-20T04:32:04;97902.75;;;-6.26;91.42
41624;BME280;27319;50.306;18.926;2022-11-20T04:35:47;97893.63;;;-6.18;92.72
41624;BME280;27319;50.306;18.926;2022-11-20T04:39:12;97887.75;;;-6.40;90.87
41624;BME280;27319;50.306;18.926;2022-11-20T04:43:12;97877.88;;;-6.33;90.75
41624;BME280;27319;50.306;18.926;2022-11-20T04:47:13;97881.91;;;-6.45;90.70
41624;BME280;27319;50.306;18.926;2022-11-20T04:51:04;97877.31;;;-6.40;91.40
41624;BME280;27319;50.306;18.926;2022-11-20T04:54:05;97875.19;;;-6.49;91.55
41624;BME280;27319;50.306;18.926;2022-11-20T04:57:26;97865.56;;;-6.48;91.69
41624;BME280;27319;50.306;18.926;2022-11-20T05:01:27;97868.88;;;-6.45;92.11
41624;BME280;27319;50.306;18.926;2022-11-20T05:05:27;97856.63;;;-6.26;92.68
41624;BME280;27319;50.306;18.926;2022-11-20T05:09:29;97858.84;;;-6.35;92.31
41624;BME280;27319;50.306;18.926;2022-11-20T05:13:29;97847.38;;;-6.33;91.50
41624;BME280;27319;50.306;18.926;2022-11-20T05:17:30;97846.00;;;-6.40;92.02
41624;BME280;27319;50.306;18.926;2022-11-20T05:21:30;97849.88;;;-6.65;90.28
41624;BME280;27319;50.306;18.926;2022-11-20T05:25:31;97844.13;;;-6.72;90.46
41624;BME280;27319;50.306;18.926;2022-11-20T05:28:39;97840.56;;;-6.52;92.66
41624;BME280;27319;50.306;18.926;2022-11-20T05:31:41;97849.88;;;-6.65;92.17
41624;BME280;27319;50.306;18.926;2022-11-20T05:34:41;97839.31;;;-6.62;91.02
41624;BME280;27319;50.306;18.926;2022-11-20T05:38:02;97849.53;;;-6.41;92.83
41624;BME280;27319;50.306;18.926;2022-11-20T05:42:03;97847.63;;;-6.37;93.04
41624;BME280;27319;50.306;18.926;2022-11-20T05:46:14;97844.31;;;-6.41;90.90
41624;BME280;27319;50.306;18.926;2022-11-20T05:50:13;97842.06;;;-6.48;91.22
41624;BME280;27319;50.306;18.926;2022-11-20T05:54:17;97839.41;;;-6.47;90.93
41624;BME280;27319;50.306;18.926;2022-11-20T05:58:18;97835.16;;;-6.49;90.93
41624;BME280;27319;50.306;18.926;2022-11-20T06:02:19;97840.84;;;-6.58;88.82
41624;BME280;27319;50.306;18.926;2022-11-20T06:06:19;97840.28;;;-6.65;90.11
41624;BME280;27319;50.306;18.926;2022-11-20T06:10:20;97841.63;;;-6.39;92.01
41624;BME280;27319;50.306;18.926;2022-11-20T06:14:20;97838.78;;;-6.52;91.50
41624;BME280;27319;50.306;18.926;2022-11-20T06:18:22;97846.16;;;-6.43;91.18
41624;BME280;27319;50.306;18.926;2022-11-20T06:22:22;97841.97;;;-6.64;90.56
41624;BME280;27319;50.306;18.926;2022-11-20T06:26:24;97849.06;;;-6.84;89.37
41624;BME280;27319;50.306;18.926;2022-11-20T06:30:23;97846.63;;;-6.70;91.01
41624;BME280;27319;50.306;18.926;2022-11-20T06:34:05;97845.91;;;-6.55;90.49
41624;BME280;27319;50.306;18.926;2022-11-20T06:37:06;97844.16;;;-6.55;90.45
41624;BME280;27319;50.306;18.926;2022-11-20T06:40:27;97844.75;;;-6.67;85.04
41624;BME280;27319;50.306;18.926;2022-11-20T06:44:10;97846.56;;;-6.69;87.10
41624;BME280;27319;50.306;18.926;2022-11-20T06:48:11;97836.34;;;-6.73;88.48
41624;BME280;27319;50.306;18.926;2022-11-20T06:52:11;97831.09;;;-6.55;90.05
41624;BME280;27319;50.306;18.926;2022-11-20T06:56:12;97826.34;;;-6.47;91.41
41624;BME280;27319;50.306;18.926;2022-11-20T07:00:13;97820.81;;;-6.58;90.85
41624;BME280;27319;50.306;18.926;2022-11-20T07:04:14;97817.03;;;-6.69;89.84
41624;BME280;27319;50.306;18.926;2022-11-20T07:08:14;97820.81;;;-6.58;91.34
41624;BME280;27319;50.306;18.926;2022-11-20T07:12:15;97830.41;;;-6.58;91.29
41624;BME280;27319;50.306;18.926;2022-11-20T07:16:16;97826.28;;;-6.45;89.24
41624;BME280;27319;50.306;18.926;2022-11-20T07:20:16;97814.16;;;-6.46;89.79
41624;BME280;27319;50.306;18.926;2022-11-20T07:24:17;97814.16;;;-6.46;89.91
41624;BME280;27319;50.306;18.926;2022-11-20T07:28:18;97816.06;;;-6.50;89.72
41624;BME280;27319;50.306;18.926;2022-11-20T07:32:18;97817.09;;;-6.35;90.34
41624;BME280;27319;50.306;18.926;2022-11-20T07:36:19;97819.38;;;-6.29;90.95
41624;BME280;27319;50.306;18.926;2022-11-20T07:40:20;97817.28;;;-6.23;91.46
41624;BME280;27319;50.306;18.926;2022-11-20T07:44:21;97812.31;;;-6.10;91.48
41624;BME280;27319;50.306;18.926;2022-11-20T07:48:21;97808.63;;;-6.06;91.52
41624;BME280;27319;50.306;18.926;2022-11-20T07:52:22;97805.81;;;-5.86;92.32
41624;BME280;27319;50.306;18.926;2022-11-20T07:56:23;97810.06;;;-5.84;91.82
41624;BME280;27319;50.306;18.926;2022-11-20T08:00:24;97810.22;;;-5.71;92.23
41624;BME280;27319;50.306;18.926;2022-11-20T08:03:46;97813.47;;;-5.66;92.30
41624;BME280;27319;50.306;18.926;2022-11-20T08:07:47;97826.94;;;-5.58;92.66
41624;BME280;27319;50.306;18.926;2022-11-20T08:11:47;97822.97;;;-5.33;93.11
41624;BME280;27319;50.306;18.926;2022-11-20T08:15:47;97832.34;;;-4.82;93.65
41624;BME280;27319;50.306;18.926;2022-11-20T08:19:47;97834.47;;;-4.89;93.62
41624;BME280;27319;50.306;18.926;2022-11-20T08:23:48;97832.47;;;-4.68;93.09
41624;BME280;27319;50.306;18.926;2022-11-20T08:27:48;97839.09;;;-4.47;92.99
41624;BME280;27319;50.306;18.926;2022-11-20T08:31:49;97838.81;;;-4.27;92.52
41624;BME280;27319;50.306;18.926;2022-11-20T08:35:34;97836.72;;;-4.36;93.17
41624;BME280;27319;50.306;18.926;2022-11-20T08:38:55;97842.03;;;-4.22;93.16
41624;BME280;27319;50.306;18.926;2022-11-20T08:42:56;97845.19;;;-4.02;93.10
41624;BME280;27319;50.306;18.926;2022-11-20T08:46:17;97845.06;;;-4.00;92.97
41624;BME280;27319;50.306;18.926;2022-11-20T08:50:17;97846.72;;;-3.84;93.12
41624;BME280;27319;50.306;18.926;2022-11-20T08:54:18;97849.63;;;-3.74;92.65
41624;BME280;27319;50.306;18.926;2022-11-20T08:58:19;97849.19;;;-3.67;92.79
41624;BME280;27319;50.306;18.926;2022-11-20T09:02:20;97834.78;;;-3.60;92.87
41624;BME280;27319;50.306;18.926;2022-11-20T09:06:20;97839.25;;;-3.34;92.83
41624;BME280;27319;50.306;18.926;2022-11-20T09:10:21;97855.19;;;-3.23;92.48
41624;BME280;27319;50.306;18.926;2022-11-20T09:14:21;97846.88;;;-3.01;91.24
41624;BME280;27319;50.306;18.926;2022-11-20T09:18:22;97840.22;;;-2.93;92.23
41624;BME280;27319;50.306;18.926;2022-11-20T09:22:23;97839.78;;;-2.73;90.61
41624;BME280;27319;50.306;18.926;2022-11-20T09:26:23;97834.41;;;-2.57;90.87
41624;BME280;27319;50.306;18.926;2022-11-20T09:30:25;97826.38;;;-2.42;91.53
41624;BME280;27319;50.306;18.926;2022-11-20T09:34:05;97826.25;;;-2.26;90.93
41624;BME280;27319;50.306;18.926;2022-11-20T09:37:26;97816.06;;;-2.18;91.59
41624;BME280;27319;50.306;18.926;2022-11-20T09:52:28;97812.69;;;-1.69;89.25
41624;BME280;27319;50.306;18.926;2022-11-20T09:55:48;97804.47;;;-1.64;89.08
41624;BME280;27319;50.306;18.926;2022-11-20T09:59:59;97803.56;;;-1.63;87.92
41624;BME280;27319;50.306;18.926;2022-11-20T10:03:57;97811.34;;;-1.37;88.16
41624;BME280;27319;50.306;18.926;2022-11-20T10:08:16;97799.88;;;-1.36;87.68
41624;BME280;27319;50.306;18.926;2022-11-20T10:12:27;97794.69;;;-1.37;85.94
41624;BME280;27319;50.306;18.926;2022-11-20T10:31:08;97785.69;;;-0.97;87.67
41624;BME280;27319;50.306;18.926;2022-11-20T10:34:59;97782.25;;;-0.74;86.92
41624;BME280;27319;50.306;18.926;2022-11-20T10:38:23;97778.34;;;-0.69;86.55
41624;BME280;27319;50.306;18.926;2022-11-20T10:42:04;97769.72;;;-0.47;85.77
41624;BME280;27319;50.306;18.926;2022-11-20T10:45:36;97758.28;;;-0.35;85.26
41624;BME280;27319;50.306;18.926;2022-11-20T10:49:36;97750.88;;;-0.30;84.07
41624;BME280;27319;50.306;18.926;2022-11-20T10:57:31;97739.03;;;-0.25;83.28
41624;BME280;27319;50.306;18.926;2022-11-20T11:01:25;97747.28;;;-0.29;83.59
41624;BME280;27319;50.306;18.926;2022-11-20T11:05:39;97737.25;;;-0.24;84.44
41624;BME280;27319;50.306;18.926;2022-11-20T11:09:42;97719.25;;;-0.30;84.25
41624;BME280;27319;50.306;18.926;2022-11-20T11:13:45;97744.13;;;-0.34;84.92
41624;BME280;27319;50.306;18.926;2022-11-20T11:17:49;97743.03;;;-0.43;85.03
41624;BME280;27319;50.306;18.926;2022-11-20T11:21:50;97746.38;;;-0.17;83.40
41624;BME280;27319;50.306;18.926;2022-11-20T11:25:55;97748.97;;;-0.28;84.50
41624;BME280;27319;50.306;18.926;2022-11-20T11:30:13;97747.78;;;-0.24;84.60
41624;BME280;27319;50.306;18.926;2022-11-20T11:34:21;97738.81;;;-0.22;85.80
41624;BME280;27319;50.306;18.926;2022-11-20T11:37:22;97738.91;;;-0.23;85.97
41624;BME280;27319;50.306;18.926;2022-11-20T11:40:23;97733.53;;;-0.22;85.45
41624;BME280;27319;50.306;18.926;2022-11-20T11:43:26;97729.34;;;-0.24;86.05
41624;BME280;27319;50.306;18.926;2022-11-20T11:46:56;97719.00;;;-0.28;86.53
41624;BME280;27319;50.306;18.926;2022-11-20T11:53:09;97708.00;;;-0.22;85.70
41624;BME280;27319;50.306;18.926;2022-11-20T11:56:13;97702.78;;;0.00;85.64
41624;BME280;27319;50.306;18.926;2022-11-20T11:59:45;97701.94;;;-0.11;85.90
41624;BME280;27319;50.306;18.926;2022-11-20T12:05:49;97710.81;;;-0.01;86.10
41624;BME280;27319;50.306;18.926;2022-11-20T12:09:03;97709.25;;;0.07;86.28
41624;BME280;27319;50.306;18.926;2022-11-20T12:12:27;97712.88;;;0.17;86.65
41624;BME280;27319;50.306;18.926;2022-11-20T12:16:27;97708.00;;;0.24;86.23
41624;BME280;27319;50.306;18.926;2022-11-20T12:20:33;97694.91;;;0.33;85.84
41624;BME280;27319;50.306;18.926;2022-11-20T12:42:46;97652.09;;;0.19;85.11
41624;BME280;27319;50.306;18.926;2022-11-20T12:46:46;97651.84;;;0.22;85.55
41624;BME280;27319;50.306;18.926;2022-11-20T12:58:20;97636.59;;;-0.08;86.73
41624;BME280;27319;50.306;18.926;2022-11-20T13:08:53;97636.72;;;0.02;85.86
41624;BME280;27319;50.306;18.926;2022-11-20T13:12:36;97623.91;;;-0.03;86.19
41624;BME280;27319;50.306;18.926;2022-11-20T13:18:48;97633.00;;;-0.07;87.22
41624;BME280;27319;50.306;18.926;2022-11-20T13:22:51;97635.63;;;-0.07;87.58
41624;BME280;27319;50.306;18.926;2022-11-20T13:30:50;97619.72;;;-0.05;87.30
41624;BME280;27319;50.306;18.926;2022-11-20T13:34:30;97616.22;;;-0.06;87.72
41624;BME280;27319;50.306;18.926;2022-11-20T13:37:34;97619.81;;;-0.07;87.40
41624;BME280;27319;50.306;18.926;2022-11-20T13:40:56;97614.91;;;-0.11;87.74
41624;BME280;27319;50.306;18.926;2022-11-20T13:44:46;97619.78;;;-0.28;88.64
41624;BME280;27319;50.306;18.926;2022-11-20T13:47:28;97617.81;;;-0.38;88.92
41624;BME280;27319;50.306;18.926;2022-11-20T14:00:32;97596.91;;;-0.62;90.13
41624;BME280;27319;50.306;18.926;2022-11-20T14:04:49;97598.13;;;-0.55;90.37
41624;BME280;27319;50.306;18.926;2022-11-20T14:08:43;97607.47;;;-0.62;90.69
41624;BME280;27319;50.306;18.926;2022-11-20T14:12:42;97608.94;;;-0.58;90.69
41624;BME280;27319;50.306;18.926;2022-11-20T14:16:43;97596.47;;;-0.56;90.84
41624;BME280;27319;50.306;18.926;2022-11-20T14:20:43;97598.38;;;-0.58;90.71
41624;BME280;27319;50.306;18.926;2022-11-20T14:24:45;97602.47;;;-0.43;90.65
41624;BME280;27319;50.306;18.926;2022-11-20T14:28:47;97593.47;;;-0.52;90.30
41624;BME280;27319;50.306;18.926;2022-11-20T14:32:46;97581.63;;;-0.57;90.83
41624;BME280;27319;50.306;18.926;2022-11-20T14:36:42;97588.19;;;-0.63;91.31
41624;BME280;27319;50.306;18.926;2022-11-20T14:40:40;97595.47;;;-0.66;91.21
41624;BME280;27319;50.306;18.926;2022-11-20T14:44:41;97591.16;;;-0.67;91.53
41624;BME280;27319;50.306;18.926;2022-11-20T14:48:48;97576.19;;;-0.67;91.54
41624;BME280;27319;50.306;18.926;2022-11-20T14:53:06;97584.69;;;-0.74;91.68
41624;BME280;27319;50.306;18.926;2022-11-20T14:56:55;97577.97;;;-0.67;91.34
41624;BME280;27319;50.306;18.926;2022-11-20T15:00:42;97571.28;;;-0.71;91.80
41624;BME280;27319;50.306;18.926;2022-11-20T15:04:50;97582.03;;;-0.74;91.98
41624;BME280;27319;50.306;18.926;2022-11-20T15:08:52;97567.69;;;-0.70;91.87
41624;BME280;27319;50.306;18.926;2022-11-20T15:13:03;97557.38;;;-0.73;92.58
41624;BME280;27319;50.306;18.926;2022-11-20T15:16:47;97564.31;;;-0.72;92.24
41624;BME280;27319;50.306;18.926;2022-11-20T15:20:48;97568.31;;;-0.67;92.34
41624;BME280;27319;50.306;18.926;2022-11-20T15:24:49;97554.06;;;-0.64;92.35
41624;BME280;27319;50.306;18.926;2022-11-20T15:28:50;97559.31;;;-0.64;92.46
41624;BME280;27319;50.306;18.926;2022-11-20T15:32:50;97551.41;;;-0.64;92.50
41624;BME280;27319;50.306;18.926;2022-11-20T15:36:26;97559.06;;;-0.61;92.19
41624;BME280;27319;50.306;18.926;2022-11-20T15:39:47;97556.94;;;-0.56;92.32
41624;BME280;27319;50.306;18.926;2022-11-20T15:43:48;97549.75;;;-0.43;91.95
41624;BME280;27319;50.306;18.926;2022-11-20T15:47:48;97545.69;;;-0.47;91.66
41624;BME280;27319;50.306;18.926;2022-11-20T15:51:49;97547.91;;;-0.19;91.40
41624;BME280;27319;50.306;18.926;2022-11-20T15:55:50;97551.47;;;-0.42;91.63
41624;BME280;27319;50.306;18.926;2022-11-20T15:59:51;97550.00;;;-0.46;92.00
41624;BME280;27319;50.306;18.926;2022-11-20T16:03:51;97549.41;;;-0.50;92.41
41624;BME280;27319;50.306;18.926;2022-11-20T16:07:52;97552.75;;;-0.48;92.16
41624;BME280;27319;50.306;18.926;2022-11-20T16:11:53;97552.41;;;-0.43;92.75
41624;BME280;27319;50.306;18.926;2022-11-20T16:15:59;97551.56;;;-0.44;92.61
41624;BME280;27319;50.306;18.926;2022-11-20T16:20:02;97547.13;;;-0.32;92.18
41624;BME280;27319;50.306;18.926;2022-11-20T16:24:05;97546.44;;;-0.34;92.24
41624;BME280;27319;50.306;18.926;2022-11-20T16:28:04;97552.91;;;-0.17;91.99
41624;BME280;27319;50.306;18.926;2022-11-20T16:32:05;97556.25;;;-0.15;92.04
41624;BME280;27319;50.306;18.926;2022-11-20T16:35:45;97555.06;;;-0.11;92.41
41624;BME280;27319;50.306;18.926;2022-11-20T16:38:54;97558.19;;;-0.06;92.49
41624;BME280;27319;50.306;18.926;2022-11-20T16:41:55;97541.19;;;-0.02;92.50
41624;BME280;27319;50.306;18.926;2022-11-20T16:44:56;97537.56;;;-0.01;91.66
41624;BME280;27319;50.306;18.926;2022-11-20T16:47:57;97526.66;;;0.15;91.91
41624;BME280;27319;50.306;18.926;2022-11-20T16:51:18;97537.09;;;0.16;91.92
41624;BME280;27319;50.306;18.926;2022-11-20T16:55:18;97541.41;;;0.17;91.73
41624;BME280;27319;50.306;18.926;2022-11-20T16:59:19;97540.22;;;0.10;91.28
41624;BME280;27319;50.306;18.926;2022-11-20T17:03:19;97545.38;;;0.12;91.89
41624;BME280;27319;50.306;18.926;2022-11-20T17:07:21;97555.44;;;0.07;91.97
41624;BME280;27319;50.306;18.926;2022-11-20T17:11:27;97559.28;;;0.03;92.09
41624;BME280;27319;50.306;18.926;2022-11-20T17:14:49;97557.00;;;-0.02;92.13
41624;BME280;27319;50.306;18.926;2022-11-20T17:18:30;97555.06;;;0.00;92.26
41624;BME280;27319;50.306;18.926;2022-11-20T17:21:32;97545.00;;;0.05;92.30
41624;BME280;27319;50.306;18.926;2022-11-20T17:24:35;97541.19;;;-0.02;92.83
41624;BME280;27319;50.306;18.926;2022-11-20T17:27:36;97527.50;;;-0.07;92.86
41624;BME280;27319;50.306;18.926;2022-11-20T17:31:00;97540.44;;;-0.15;93.01
41624;BME280;27319;50.306;18.926;2022-11-20T17:34:38;97529.28;;;-0.18;93.05
41624;BME280;27319;50.306;18.926;2022-11-20T17:37:58;97526.31;;;-0.35;93.49
41624;BME280;27319;50.306;18.926;2022-11-20T17:41:59;97518.03;;;-0.31;93.55
41624;BME280;27319;50.306;18.926;2022-11-20T17:46:07;97522.00;;;-0.25;93.02
41624;BME280;27319;50.306;18.926;2022-11-20T17:50:07;97514.81;;;-0.23;93.35
41624;BME280;27319;50.306;18.926;2022-11-20T17:54:09;97503.41;;;-0.24;93.46
41624;BME280;27319;50.306;18.926;2022-11-20T17:58:08;97503.53;;;-0.36;93.64
41624;BME280;27319;50.306;18.926;2022-11-20T18:02:09;97489.63;;;-0.38;93.42
41624;BME280;27319;50.306;18.926;2022-11-20T18:05:54;97482.56;;;-0.49;94.10
41624;BME280;27319;50.306;18.926;2022-11-20T18:08:57;97487.47;;;-0.55;93.97
41624;BME280;27319;50.306;18.926;2022-11-20T18:12:18;97488.06;;;-0.52;94.15
41624;BME280;27319;50.306;18.926;2022-11-20T18:16:26;97502.47;;;-0.45;94.16
41624;BME280;27319;50.306;18.926;2022-11-20T18:20:26;97502.78;;;-0.49;94.15
41624;BME280;27319;50.306;18.926;2022-11-20T18:24:27;97516.34;;;-0.54;94.48
41624;BME280;27319;50.306;18.926;2022-11-20T18:28:28;97513.22;;;-0.48;94.40
41624;BME280;27319;50.306;18.926;2022-11-20T18:32:08;97506.41;;;-0.50;94.51
41624;BME280;27319;50.306;18.926;2022-11-20T18:35:29;97503.41;;;-0.57;94.54
41624;BME280;27319;50.306;18.926;2022-11-20T18:39:30;97511.91;;;-0.53;94.78
41624;BME280;27319;50.306;18.926;2022-11-20T18:43:31;97509.47;;;-0.67;94.99
41624;BME280;27319;50.306;18.926;2022-11-20T18:47:31;97521.22;;;-0.71;95.29
41624;BME280;27319;50.306;18.926;2022-11-20T18:51:31;97514.66;;;-0.66;95.16
41624;BME280;27319;50.306;18.926;2022-11-20T18:55:31;97509.72;;;-0.70;95.38
41624;BME280;27319;50.306;18.926;2022-11-20T18:59:32;97507.34;;;-0.62;95.34
41624;BME280;27319;50.306;18.926;2022-11-20T19:03:33;97509.94;;;-0.73;95.41
41624;BME280;27319;50.306;18.926;2022-11-20T19:07:33;97502.28;;;-0.87;95.13
41624;BME280;27319;50.306;18.926;2022-11-20T19:11:34;97506.28;;;-1.05;95.24
41624;BME280;27319;50.306;18.926;2022-11-20T19:15:35;97499.94;;;-1.14;95.16
41624;BME280;27319;50.306;18.926;2022-11-20T19:19:35;97501.38;;;-0.99;95.38
41624;BME280;27319;50.306;18.926;2022-11-20T19:23:36;97504.88;;;-0.98;95.49
41624;BME280;27319;50.306;18.926;2022-11-20T19:27:37;97502.63;;;-0.92;95.56
41624;BME280;27319;50.306;18.926;2022-11-20T19:31:38;97508.50;;;-0.88;95.45
41624;BME280;27319;50.306;18.926;2022-11-20T19:35:18;97510.75;;;-0.95;95.30
41624;BME280;27319;50.306;18.926;2022-11-20T19:38:40;97510.59;;;-1.04;95.45
41624;BME280;27319;50.306;18.926;2022-11-20T19:42:40;97514.19;;;-1.05;95.65
41624;BME280;27319;50.306;18.926;2022-11-20T19:46:41;97513.19;;;-1.15;95.83
41624;BME280;27319;50.306;18.926;2022-11-20T19:50:41;97517.41;;;-1.13;95.96
41624;BME280;27319;50.306;18.926;2022-11-20T19:54:42;97509.38;;;-1.11;96.51
41624;BME280;27319;50.306;18.926;2022-11-20T19:58:42;97503.06;;;-1.09;96.60
41624;BME280;27319;50.306;18.926;2022-11-20T20:02:43;97497.66;;;-1.07;96.63
41624;BME280;27319;50.306;18.926;2022-11-20T20:06:44;97491.09;;;-1.02;96.89
41624;BME280;27319;50.306;18.926;2022-11-20T20:10:44;97490.59;;;-1.07;97.03
41624;BME280;27319;50.306;18.926;2022-11-20T20:14:45;97484.50;;;-1.07;97.41
41624;BME280;27319;50.306;18.926;2022-11-20T20:18:46;97495.16;;;-0.98;97.36
41624;BME280;27319;50.306;18.926;2022-11-20T20:22:46;97499.31;;;-0.72;97.08
41624;BME280;27319;50.306;18.926;2022-11-20T20:26:47;97509.34;;;-0.77;97.29
41624;BME280;27319;50.306;18.926;2022-11-20T20:30:47;97506.59;;;-0.86;97.30
41624;BME280;27319;50.306;18.926;2022-11-20T20:34:28;97498.91;;;-0.89;97.43
41624;BME280;27319;50.306;18.926;2022-11-20T20:37:31;97497.72;;;-0.85;97.06
41624;BME280;27319;50.306;18.926;2022-11-20T20:40:52;97492.72;;;-0.77;97.23
41624;BME280;27319;50.306;18.926;2022-11-20T20:44:53;97492.09;;;-0.81;97.42
41624;BME280;27319;50.306;18.926;2022-11-20T20:48:56;97491.28;;;-0.81;97.43
41624;BME280;27319;50.306;18.926;2022-11-20T20:52:57;97493.66;;;-0.78;97.28
41624;BME280;27319;50.306;18.926;2022-11-20T20:57:00;97493.31;;;-0.74;97.43
41624;BME280;27319;50.306;18.926;2022-11-20T21:01:01;97498.13;;;-0.68;97.31
41624;BME280;27319;50.306;18.926;2022-11-20T21:05:01;97499.22;;;-0.59;97.73
41624;BME280;27319;50.306;18.926;2022-11-20T21:09:02;97496.31;;;-0.56;97.89
41624;BME280;27319;50.306;18.926;2022-11-20T21:13:02;97494.75;;;-0.59;97.91
41624;BME280;27319;50.306;18.926;2022-11-20T21:17:06;97501.09;;;-0.61;98.16
41624;BME280;27319;50.306;18.926;2022-11-20T21:21:08;97499.69;;;-0.54;98.02
41624;BME280;27319;50.306;18.926;2022-11-20T21:25:06;97501.59;;;-0.56;98.10